Time;durP1;ratioP1;P1;durP2;ratioP2;P2;SDS_P1;SDS_P2;PMS_P1;PMS_P2;Temp;Humidity;BMP_temperature;BMP_pressure;BME280_temperature;BME280_humidity;BME280_pressure;Samples;Min_cycle;Max_cycle;Signal;HPM_P1;HPM_P2
2024/01/26 00:01:13;;;;;;;21.05;13.73;;;;;;;9.90;81.99;101716.94;4129933;28;20046;-62
2024/01/26 00:03:16;;;;;;;20.48;14.82;;;;;;;9.91;82.30;101708.31;4131866;28;20046;-62
2024/01/26 00:05:21;;;;;;;19.35;15.10;;;;;;;9.92;82.17;101710.97;4131069;28;20351;-62
2024/01/26 00:07:24;;;;;;;20.60;14.13;;;;;;;9.91;82.39;101716.13;4147644;28;20037;-61
2024/01/26 00:09:27;;;;;;;19.73;13.90;;;;;;;9.91;82.04;101705.72;4130686;28;20463;-61
2024/01/26 00:11:30;;;;;;;20.30;14.60;;;;;;;9.91;82.25;101695.34;4130296;28;20493;-62
2024/01/26 00:13:33;;;;;;;19.60;12.63;;;;;;;9.92;82.27;101695.38;4129781;28;20088;-61
2024/01/26 00:15:36;;;;;;;19.60;14.38;;;;;;;9.90;81.95;101694.47;4130222;28;20037;-61
2024/01/26 00:17:39;;;;;;;21.38;14.98;;;;;;;9.87;82.14;101694.34;4131703;28;20582;-61
2024/01/26 00:19:42;;;;;;;19.30;13.52;;;;;;;9.87;81.57;101693.44;4131061;28;20516;-63
2024/01/26 00:21:47;;;;;;;18.35;14.10;;;;;;;9.87;82.17;101694.34;4130254;28;20125;-61
2024/01/26 00:23:50;;;;;;;20.00;14.60;;;;;;;9.87;81.84;101686.56;4128274;28;20042;-62
2024/01/26 00:25:54;;;;;;;16.77;12.45;;;;;;;9.89;81.50;101687.50;4129220;28;20081;-62
2024/01/26 00:27:57;;;;;;;18.63;14.45;;;;;;;9.89;82.00;101690.09;4125773;28;20037;-61
2024/01/26 00:30:00;;;;;;;18.15;13.48;;;;;;;9.91;81.77;101692.75;4129996;28;20465;-61
2024/01/26 00:32:04;;;;;;;18.63;13.25;;;;;;;9.91;81.12;101684.94;4130803;28;20330;-62
2024/01/26 00:34:06;;;;;;;20.67;14.48;;;;;;;9.86;81.76;101682.19;4129347;28;20129;-62
2024/01/26 00:36:09;;;;;;;20.60;13.52;;;;;;;9.89;81.64;101681.41;4131195;28;20039;-61
2024/01/26 00:38:14;;;;;;;21.20;14.80;;;;;;;9.86;81.30;101689.09;4130527;28;20058;-62
2024/01/26 00:40:17;;;;;;;20.33;12.65;;;;;;;9.82;81.70;101680.28;4129453;28;20050;-59
2024/01/26 00:42:19;;;;;;;21.13;13.60;;;;;;;9.80;82.11;101681.97;4130928;28;20069;-61
2024/01/26 00:44:22;;;;;;;19.25;13.75;;;;;;;9.77;82.12;101687.91;4130323;28;20041;-62
2024/01/26 00:46:24;;;;;;;19.77;13.73;;;;;;;9.77;81.73;101685.31;4130241;28;20066;-62
2024/01/26 00:48:27;;;;;;;19.60;14.27;;;;;;;9.79;81.55;101685.38;4131056;28;20496;-62
2024/01/26 00:50:30;;;;;;;18.88;13.60;;;;;;;9.88;81.31;101680.50;4130266;28;20048;-62
2024/01/26 00:52:33;;;;;;;17.90;12.90;;;;;;;9.85;81.68;101677.81;4131581;28;20381;-61
2024/01/26 00:54:37;;;;;;;20.05;14.77;;;;;;;9.87;81.67;101668.38;4130087;28;20035;-60
2024/01/26 00:56:41;;;;;;;19.98;13.80;;;;;;;9.82;81.54;101671.63;4128762;28;20042;-62
2024/01/26 00:58:44;;;;;;;19.48;14.77;;;;;;;9.81;81.44;101672.44;4129961;28;20035;-61
2024/01/26 01:00:47;;;;;;;18.23;14.25;;;;;;;9.82;81.36;101671.63;4128452;28;20046;-62
2024/01/26 01:02:50;;;;;;;21.17;13.98;;;;;;;9.89;81.35;101671.91;4130238;28;20030;-62
2024/01/26 01:04:53;;;;;;;20.88;14.57;;;;;;;9.82;82.01;101667.31;4130079;28;20100;-62
2024/01/26 01:06:58;;;;;;;20.80;14.35;;;;;;;9.91;81.71;101674.56;4122065;28;20041;-61
2024/01/26 01:09:01;;;;;;;19.15;14.85;;;;;;;9.81;81.86;101668.13;4130712;28;20045;-61
2024/01/26 01:11:06;;;;;;;20.83;15.20;;;;;;;9.82;81.72;101669.03;4129832;28;20124;-62
2024/01/26 01:13:10;;;;;;;21.90;15.40;;;;;;;9.79;81.63;101669.78;4129999;28;20081;-62
2024/01/26 01:15:13;;;;;;;23.15;15.60;;;;;;;9.73;82.72;101670.44;4129236;28;20046;-62
2024/01/26 01:17:16;;;;;;;18.38;13.68;;;;;;;9.74;82.56;101660.97;4130682;28;20046;-60
2024/01/26 01:19:19;;;;;;;20.48;13.95;;;;;;;9.73;82.73;101669.56;4129963;28;20042;-62
2024/01/26 01:21:22;;;;;;;22.75;14.52;;;;;;;9.75;82.30;101666.22;4131145;28;20100;-62
2024/01/26 01:23:25;;;;;;;20.98;14.68;;;;;;;9.79;82.13;101669.78;4130759;28;20412;-61
2024/01/26 01:25:28;;;;;;;21.88;15.55;;;;;;;9.91;81.95;101675.44;4128609;28;20038;-63
2024/01/26 01:27:32;;;;;;;21.52;14.88;;;;;;;9.88;81.91;101669.25;4130415;28;20042;-62
2024/01/26 01:29:35;;;;;;;22.10;15.32;;;;;;;9.83;82.22;101674.28;4130731;28;20511;-63
2024/01/26 01:31:38;;;;;;;20.17;14.82;;;;;;;9.82;82.58;101669.91;4129922;28;20411;-63
2024/01/26 01:33:41;;;;;;;21.90;15.98;;;;;;;9.84;82.75;101664.75;4129512;28;20038;-63
2024/01/26 01:35:44;;;;;;;22.73;16.02;;;;;;;9.81;82.81;101656.88;4128056;28;20096;-63
2024/01/26 01:37:47;;;;;;;22.23;15.07;;;;;;;9.82;82.07;101656.03;4129409;28;20038;-63
2024/01/26 01:39:50;;;;;;;16.77;12.35;;;;;;;9.78;82.87;101658.53;4130571;28;20058;-62
2024/01/26 01:41:53;;;;;;;20.08;15.50;;;;;;;9.81;83.12;101649.06;4128681;28;20035;-62
2024/01/26 01:43:57;;;;;;;21.33;14.88;;;;;;;9.81;83.06;101657.75;4122567;28;20043;-63
2024/01/26 01:46:00;;;;;;;22.50;16.83;;;;;;;9.81;82.78;101655.13;4129764;28;20141;-63
2024/01/26 01:48:03;;;;;;;23.63;16.75;;;;;;;9.79;82.15;101655.09;4128191;28;20046;-63
2024/01/26 01:50:07;;;;;;;19.95;14.57;;;;;;;9.81;82.84;101656.88;4129838;28;20418;-63
2024/01/26 01:52:13;;;;;;;18.45;13.93;;;;;;;9.80;82.51;101656.00;4130795;28;20046;-63
2024/01/26 01:54:19;;;;;;;18.77;13.60;;;;;;;9.81;82.87;101656.88;4130006;28;20050;-63
2024/01/26 01:56:24;;;;;;;22.63;17.17;;;;;;;9.81;82.35;101659.47;4128981;28;20129;-62
2024/01/26 01:58:27;;;;;;;;;;;;;;;9.71;82.73;101660.81;4129918;28;20539;-63
2024/01/26 02:00:32;;;;;;;21.73;15.98;;;;;;;9.76;82.96;101656.69;4129651;28;19968;-65
2024/01/26 02:02:35;;;;;;;21.42;16.30;;;;;;;9.79;82.24;101647.28;4130121;28;20049;-63
2024/01/26 02:04:38;;;;;;;19.10;14.10;;;;;;;9.84;82.53;101649.19;4128827;28;20060;-63
2024/01/26 02:06:41;;;;;;;19.85;14.52;;;;;;;9.86;82.26;101645.81;4129629;28;20039;-62
2024/01/26 02:08:44;;;;;;;19.15;14.50;;;;;;;9.85;82.79;101645.75;4130013;28;20049;-62
2024/01/26 02:10:47;;;;;;;22.70;16.02;;;;;;;9.83;82.67;101652.59;4130719;28;20045;-62
2024/01/26 02:12:50;;;;;;;18.10;13.35;;;;;;;9.82;82.35;101648.25;4130705;28;20111;-63
2024/01/26 02:14:52;;;;;;;19.40;14.95;;;;;;;9.88;82.50;101649.34;4134214;28;20046;-63
2024/01/26 02:16:58;;;;;;;22.27;15.35;;;;;;;9.86;82.61;101648.41;4132085;28;20050;-62
2024/01/26 02:19:01;;;;;;;19.52;14.55;;;;;;;9.86;82.49;101645.81;4133404;28;20042;-62
2024/01/26 02:21:04;;;;;;;18.38;14.38;;;;;;;9.88;82.55;101638.09;4132637;28;20052;-62
2024/01/26 02:23:06;;;;;;;17.00;12.88;;;;;;;9.85;82.65;101632.78;4133201;28;20042;-62
2024/01/26 02:25:11;;;;;;;18.80;14.02;;;;;;;9.88;82.21;101628.56;4133722;28;20533;-62
2024/01/26 02:27:13;;;;;;;19.08;13.55;;;;;;;9.82;82.39;101633.53;4131468;28;20043;-62
2024/01/26 02:29:17;;;;;;;21.60;15.60;;;;;;;9.83;82.37;101631.81;4131872;28;20093;-62
2024/01/26 02:31:19;;;;;;;17.90;13.98;;;;;;;9.89;82.33;101637.25;4147696;28;20084;-62
2024/01/26 02:33:22;;;;;;;16.80;12.02;;;;;;;9.86;82.51;101638.03;4148193;28;20157;-61
2024/01/26 02:35:26;;;;;;;19.25;11.65;;;;;;;9.87;81.77;101638.91;4133215;28;20100;-62
2024/01/26 02:37:28;;;;;;;15.90;12.18;;;;;;;9.85;82.06;101637.97;4132191;28;20039;-62
2024/01/26 02:39:32;;;;;;;16.42;11.82;;;;;;;9.81;82.34;101631.78;4132951;28;20066;-62
2024/01/26 02:41:37;;;;;;;16.67;11.90;;;;;;;9.85;82.58;101637.97;4131993;28;20042;-62
2024/01/26 02:43:40;;;;;;;16.95;12.77;;;;;;;9.84;82.89;101637.09;4132795;28;20289;-61
2024/01/26 02:45:46;;;;;;;16.60;12.35;;;;;;;9.86;82.03;101634.56;4148013;28;20048;-62
2024/01/26 02:47:49;;;;;;;14.18;10.82;;;;;;;9.83;82.90;101639.63;4132974;28;20042;-62
2024/01/26 02:49:52;;;;;;;15.43;10.40;;;;;;;9.82;82.22;101638.75;4132292;28;20038;-62
2024/01/26 02:51:55;;;;;;;15.65;11.27;;;;;;;9.88;82.19;101632.88;4132431;28;20034;-61
2024/01/26 02:54:00;;;;;;;13.75;10.05;;;;;;;9.86;82.62;101629.38;4131524;28;20039;-62
2024/01/26 02:56:02;;;;;;;13.68;10.27;;;;;;;9.84;82.62;101637.09;4131845;28;20030;-62
2024/01/26 02:58:07;;;;;;;13.30;9.90;;;;;;;9.84;82.96;101636.19;4131369;28;20042;-62
2024/01/26 03:00:11;;;;;;;13.10;8.98;;;;;;;9.88;82.01;101638.09;4124119;28;20057;-61
2024/01/26 03:02:14;;;;;;;12.65;8.68;;;;;;;9.84;82.79;101636.19;4130859;28;20035;-61
2024/01/26 03:04:18;;;;;;;12.30;8.70;;;;;;;9.82;83.15;101637.88;4131910;28;20138;-62
2024/01/26 03:06:21;;;;;;;;;;;;;;;9.84;82.44;101631.00;4133623;28;20054;-61
2024/01/26 03:08:24;;;;;;;12.77;8.20;;;;;;;9.78;83.15;101635.16;4132167;28;20430;-62
2024/01/26 03:10:27;;;;;;;9.40;6.97;;;;;;;9.82;83.10;101632.66;4133121;28;20065;-62
2024/01/26 03:12:29;;;;;;;13.90;8.00;;;;;;;9.89;82.49;101632.06;4132144;28;20041;-61
2024/01/26 03:14:33;;;;;;;9.57;6.88;;;;;;;9.87;82.39;101620.72;4133166;28;20030;-62
2024/01/26 03:16:40;;;;;;;8.98;5.90;;;;;;;9.85;82.86;101630.19;4132054;28;20042;-62
2024/01/26 03:18:43;;;;;;;7.15;5.43;;;;;;;9.79;82.87;101629.13;4133276;28;20062;-62
2024/01/26 03:20:46;;;;;;;9.52;6.25;;;;;;;9.83;82.00;101632.72;4132247;28;20113;-62
2024/01/26 03:22:49;;;;;;;8.48;5.50;;;;;;;9.78;82.91;101635.16;4132150;28;20034;-62
2024/01/26 03:24:51;;;;;;;8.95;4.97;;;;;;;9.85;82.48;101628.47;4131844;28;20031;-62
2024/01/26 03:27:06;;;;;;;8.07;5.38;;;;;;;9.80;82.95;101624.81;4132437;28;20071;-62
2024/01/26 03:29:08;;;;;;;8.30;5.13;;;;;;;9.82;82.22;101622.28;4133033;28;20101;-61
2024/01/26 03:31:12;;;;;;;8.10;5.22;;;;;;;9.81;82.21;101621.38;4132576;28;20551;-62
2024/01/26 03:33:14;;;;;;;7.53;4.72;;;;;;;9.83;82.81;101616.25;4132843;28;20133;-62
2024/01/26 03:35:17;;;;;;;8.15;4.72;;;;;;;9.83;82.46;101629.22;4132960;28;20439;-62
2024/01/26 03:37:20;;;;;;;7.80;4.47;;;;;;;9.78;82.76;101629.06;4131658;28;20038;-62
2024/01/26 03:39:23;;;;;;;6.45;4.68;;;;;;;9.83;83.01;101626.63;4131409;28;20036;-62
2024/01/26 03:41:26;;;;;;;7.45;4.15;;;;;;;9.85;82.88;101632.78;4145779;28;20057;-62
2024/01/26 03:43:29;;;;;;;7.72;4.63;;;;;;;9.85;83.13;101622.38;4131501;28;20042;-61
2024/01/26 03:45:32;;;;;;;5.65;3.70;;;;;;;9.85;82.83;101625.84;4131268;28;20049;-62
2024/01/26 03:47:35;;;;;;;8.45;4.13;;;;;;;9.88;82.91;101627.69;4131493;28;20118;-62
2024/01/26 03:49:40;;;;;;;7.82;4.88;;;;;;;9.90;82.78;101613.94;4132286;28;20042;-62
2024/01/26 03:51:43;;;;;;;8.00;4.18;;;;;;;9.94;82.17;101614.91;4130534;28;20122;-62
2024/01/26 03:53:46;;;;;;;9.35;5.15;;;;;;;9.90;82.47;101613.94;4130643;28;20045;-63
2024/01/26 03:55:49;;;;;;;7.88;4.80;;;;;;;9.90;82.32;101615.63;4131244;28;20044;-62
2024/01/26 03:57:52;;;;;;;8.30;4.20;;;;;;;9.88;82.23;101612.09;4131238;28;20049;-62
2024/01/26 03:59:55;;;;;;;6.32;4.60;;;;;;;9.90;82.38;101618.22;4131011;28;20038;-62
2024/01/26 04:01:57;;;;;;;9.32;4.82;;;;;;;9.91;82.29;101612.22;4130864;28;20031;-58
2024/01/26 04:04:01;;;;;;;8.25;4.53;;;;;;;9.93;81.78;101619.25;4130904;28;20038;-62
2024/01/26 04:06:09;;;;;;;8.73;4.30;;;;;;;9.89;82.42;101622.53;4131962;28;20440;-59
2024/01/26 04:08:12;;;;;;;6.60;4.25;;;;;;;9.90;81.83;101620.81;4130164;28;20042;-62
2024/01/26 04:10:15;;;;;;;8.40;4.82;;;;;;;9.89;82.00;101616.47;4132452;28;20069;-61
2024/01/26 04:12:18;;;;;;;7.50;3.90;;;;;;;9.85;81.90;101622.38;4130792;28;20045;-61
2024/01/26 04:14:21;;;;;;;7.20;4.03;;;;;;;9.92;82.30;101621.78;4130196;28;20046;-61
2024/01/26 04:16:24;;;;;;;4.05;3.05;;;;;;;9.81;82.66;101623.09;4130559;28;20515;-62
2024/01/26 04:18:27;;;;;;;5.93;3.65;;;;;;;9.84;81.90;101615.41;4130335;28;20513;-61
2024/01/26 04:20:31;;;;;;;5.32;3.33;;;;;;;9.83;82.09;101613.63;4131593;28;20045;-61
2024/01/26 04:22:33;;;;;;;4.85;3.08;;;;;;;9.83;82.18;101624.03;4131593;28;20400;-62
2024/01/26 04:24:36;;;;;;;5.40;3.63;;;;;;;9.83;82.59;101613.63;4129485;28;20046;-61
2024/01/26 04:26:39;;;;;;;4.43;3.22;;;;;;;9.87;82.50;101623.31;4130523;28;20310;-62
2024/01/26 04:28:42;;;;;;;5.43;3.33;;;;;;;9.90;82.20;101619.13;4130046;28;20036;-62
2024/01/26 04:30:44;;;;;;;7.22;4.03;;;;;;;9.85;82.47;101628.47;4130445;28;20495;-62
2024/01/26 04:32:47;;;;;;;6.45;3.55;;;;;;;9.86;81.95;101635.44;4130272;28;20460;-63
2024/01/26 04:34:49;;;;;;;6.13;3.33;;;;;;;9.89;82.05;101632.94;4124929;28;20046;-62
2024/01/26 04:36:53;;;;;;;4.85;3.08;;;;;;;9.90;82.23;101621.72;4131010;28;20041;-62
2024/01/26 04:38:59;;;;;;;5.47;3.40;;;;;;;9.85;82.38;101615.47;4131628;28;20069;-62
2024/01/26 04:41:01;;;;;;;7.18;3.00;;;;;;;9.86;82.86;101617.25;4124326;28;20101;-62
2024/01/26 04:43:05;;;;;;;4.80;2.97;;;;;;;9.85;82.61;101614.59;4130639;28;20052;-62
2024/01/26 04:45:08;;;;;;;5.68;2.90;;;;;;;9.95;82.29;101614.09;4129087;28;20046;-62
2024/01/26 04:47:11;;;;;;;7.30;3.50;;;;;;;9.94;82.39;101617.50;4130285;28;20057;-62
2024/01/26 04:49:14;;;;;;;5.47;2.75;;;;;;;9.85;82.87;101617.19;4130500;28;20040;-63
2024/01/26 04:51:18;;;;;;;3.83;2.58;;;;;;;9.83;82.63;101621.44;4131323;28;20043;-63
2024/01/26 04:53:22;;;;;;;7.78;2.50;;;;;;;9.73;83.12;101621.09;4130666;28;20030;-63
2024/01/26 04:55:25;;;;;;;3.83;2.50;;;;;;;9.68;83.62;101630.47;4130731;28;20396;-62
2024/01/26 04:57:28;;;;;;;4.80;2.47;;;;;;;9.68;83.85;101627.88;4131605;28;20077;-63
2024/01/26 04:59:31;;;;;;;3.50;2.50;;;;;;;9.71;84.27;101630.56;4129036;28;20121;-63
2024/01/26 05:01:34;;;;;;;5.20;2.95;;;;;;;9.70;83.96;101628.78;4127011;28;20034;-62
2024/01/26 05:03:37;;;;;;;6.03;3.00;;;;;;;9.75;84.64;101626.34;4130416;28;20625;-63
2024/01/26 05:05:40;;;;;;;5.18;2.72;;;;;;;9.80;84.07;101614.44;4130220;28;20554;-63
2024/01/26 05:07:43;;;;;;;6.38;3.13;;;;;;;9.82;84.20;101617.09;4131334;28;20038;-63
2024/01/26 05:09:46;;;;;;;5.72;3.08;;;;;;;9.77;84.58;101609.13;4138637;28;20057;-63
2024/01/26 05:11:51;;;;;;;5.60;2.97;;;;;;;9.76;84.01;101609.97;4128985;28;20408;-63
2024/01/26 05:13:54;;;;;;;7.82;3.63;;;;;;;9.81;84.19;101603.19;4128732;28;20125;-63
2024/01/26 05:15:57;;;;;;;5.90;3.08;;;;;;;9.85;83.91;101606.81;4121758;28;20591;-63
2024/01/26 05:18:00;;;;;;;8.68;4.55;;;;;;;9.82;83.82;101602.38;4129265;28;20061;-63
2024/01/26 05:20:04;;;;;;;8.32;4.45;;;;;;;9.76;84.34;101595.25;4128545;28;20441;-63
2024/01/26 05:22:07;;;;;;;7.72;4.82;;;;;;;9.76;83.80;101590.06;4127561;28;20507;-63
2024/01/26 05:24:10;;;;;;;8.68;4.70;;;;;;;9.71;84.50;101586.44;4128431;28;20548;-63
2024/01/26 05:26:15;;;;;;;7.63;5.15;;;;;;;9.76;84.68;101590.06;4129692;28;20048;-63
2024/01/26 05:28:18;;;;;;;8.48;4.63;;;;;;;9.83;84.07;101592.88;4129706;28;20484;-63
2024/01/26 05:30:21;;;;;;;8.55;5.50;;;;;;;9.73;84.35;101595.13;4128583;28;20042;-63
2024/01/26 05:32:24;;;;;;;8.45;5.43;;;;;;;9.73;84.06;101599.47;4129878;28;20504;-63
2024/01/26 05:34:27;;;;;;;8.90;5.43;;;;;;;9.77;84.04;101599.63;4130319;28;20046;-63
2024/01/26 05:36:30;;;;;;;9.30;5.72;;;;;;;9.86;83.90;101595.59;4129537;28;20551;-63
2024/01/26 05:38:33;;;;;;;7.68;5.75;;;;;;;9.78;84.19;101591.00;4127620;28;20038;-63
2024/01/26 05:40:35;;;;;;;9.55;6.35;;;;;;;9.77;83.77;101588.38;4129644;28;20042;-63
2024/01/26 05:42:40;;;;;;;7.15;5.20;;;;;;;9.79;84.05;101586.69;4127895;28;20464;-63
2024/01/26 05:44:43;;;;;;;6.95;4.80;;;;;;;9.82;84.07;101593.72;4127126;28;20039;-63
2024/01/26 05:46:46;;;;;;;10.30;6.35;;;;;;;9.78;83.92;101601.41;4129371;28;20054;-63
2024/01/26 05:48:47;;;;;;;10.35;5.22;;;;;;;9.85;84.27;101605.09;4128640;28;20054;-62
2024/01/26 05:50:51;;;;;;;11.60;5.60;;;;;;;9.76;84.33;101603.03;4129473;28;20046;-63
2024/01/26 05:52:54;;;;;;;10.90;6.20;;;;;;;9.76;84.49;101599.56;4130054;28;20061;-63
2024/01/26 05:54:56;;;;;;;6.70;4.90;;;;;;;9.70;84.65;101609.75;4129130;28;20475;-63
2024/01/26 05:56:59;;;;;;;5.53;4.53;;;;;;;9.67;84.66;101612.22;4129288;28;20053;-63
2024/01/26 05:59:04;;;;;;;7.60;4.55;;;;;;;9.65;84.64;101609.59;4129079;28;20053;-63
2024/01/26 06:01:07;;;;;;;6.05;4.72;;;;;;;9.74;83.99;101615.09;4128218;28;20129;-63
2024/01/26 06:03:11;;;;;;;6.85;4.30;;;;;;;9.75;84.18;101614.28;4129969;28;20133;-63
2024/01/26 06:05:14;;;;;;;7.85;4.80;;;;;;;9.72;84.34;101606.34;4127675;28;20042;-63
2024/01/26 06:07:17;;;;;;;9.80;5.28;;;;;;;9.68;84.63;101604.50;4128240;28;20070;-63
2024/01/26 06:09:20;;;;;;;8.23;5.05;;;;;;;9.64;84.90;101610.41;4128753;28;20519;-63
2024/01/26 06:11:22;;;;;;;4.75;3.58;;;;;;;9.50;85.42;101617.66;4129542;28;20034;-63
2024/01/26 06:13:25;;;;;;;7.72;4.28;;;;;;;9.39;86.37;101606.91;4129282;28;20042;-63
2024/01/26 06:15:29;;;;;;;7.50;4.80;;;;;;;9.44;86.72;101612.25;4129389;28;20030;-63
2024/01/26 06:17:32;;;;;;;6.15;4.00;;;;;;;9.46;86.92;101601.91;4125204;28;20046;-63
2024/01/26 06:19:37;;;;;;;6.75;4.65;;;;;;;9.56;86.27;101594.56;4129759;28;20129;-63
2024/01/26 06:21:40;;;;;;;7.22;4.30;;;;;;;9.56;86.32;101598.84;4128739;28;20042;-63
2024/01/26 06:23:43;;;;;;;5.65;4.15;;;;;;;9.66;86.05;101595.75;4129990;28;20049;-63
2024/01/26 06:25:46;;;;;;;8.32;4.30;;;;;;;9.69;85.44;101589.78;4127165;28;20038;-63
2024/01/26 06:27:49;;;;;;;5.80;3.75;;;;;;;9.85;85.27;101593.81;4128331;28;20557;-63
2024/01/26 06:29:52;;;;;;;6.10;3.55;;;;;;;9.83;84.64;101587.66;4129314;28;20062;-63
2024/01/26 06:31:58;;;;;;;6.13;3.90;;;;;;;9.77;85.35;101588.38;4128645;28;20038;-63
2024/01/26 06:34:01;;;;;;;5.57;3.60;;;;;;;9.88;84.77;101583.53;4127351;28;20074;-63
2024/01/26 06:36:05;;;;;;;5.78;3.42;;;;;;;9.83;84.90;101590.25;4129673;28;20381;-63
2024/01/26 06:38:08;;;;;;;4.88;3.00;;;;;;;9.78;84.41;101592.69;4128529;28;20573;-63
2024/01/26 06:40:12;;;;;;;5.95;3.63;;;;;;;9.71;85.16;101593.31;4127628;28;20549;-63
2024/01/26 06:42:21;;;;;;;6.93;3.00;;;;;;;9.61;85.82;101595.59;4130035;28;20030;-63
2024/01/26 06:44:22;;;;;;;6.43;3.40;;;;;;;9.57;85.74;101596.28;4126799;28;20041;-63
2024/01/26 06:46:25;;;;;;;7.10;4.05;;;;;;;9.56;85.85;101594.56;4129494;28;20121;-63
2024/01/26 06:48:30;;;;;;;5.75;3.25;;;;;;;9.66;85.27;101600.94;4129263;28;20539;-63
2024/01/26 06:50:33;;;;;;;7.50;3.85;;;;;;;9.69;85.36;101598.44;4127849;28;20050;-63
2024/01/26 06:52:38;;;;;;;4.28;2.83;;;;;;;9.71;85.74;101604.59;4127239;28;20047;-63
2024/01/26 06:54:40;;;;;;;5.97;3.20;;;;;;;9.78;85.52;101598.81;4143447;28;20502;-63
2024/01/26 06:56:43;;;;;;;6.93;3.60;;;;;;;9.78;85.38;101595.31;4129718;28;20130;-63
2024/01/26 06:58:45;;;;;;;4.60;3.55;;;;;;;9.84;85.41;101600.75;4132797;28;20038;-63
2024/01/26 07:00:48;;;;;;;5.45;3.20;;;;;;;9.85;84.76;101609.41;4134638;28;20062;-64
2024/01/26 07:02:51;;;;;;;4.93;3.00;;;;;;;9.86;85.10;101613.78;4125727;28;20682;-63
2024/01/26 07:04:56;;;;;;;6.10;3.35;;;;;;;9.84;85.05;101621.53;4129692;28;20524;-63
2024/01/26 07:06:59;;;;;;;6.38;2.97;;;;;;;9.83;84.80;101618.84;4125780;28;20133;-63
2024/01/26 07:09:02;;;;;;;5.25;3.30;;;;;;;9.85;85.22;101619.78;4133021;28;20050;-63
2024/01/26 07:11:04;;;;;;;7.93;3.42;;;;;;;9.87;84.79;101613.84;4134194;28;20046;-63
2024/01/26 07:13:07;;;;;;;4.15;2.95;;;;;;;9.89;84.39;101624.28;4132364;28;20070;-64
2024/01/26 07:15:10;;;;;;;5.90;3.13;;;;;;;9.91;84.88;101620.00;4143999;28;20112;-63
2024/01/26 07:17:13;;;;;;;4.63;3.45;;;;;;;9.91;84.31;101620.00;4132092;28;20053;-63
2024/01/26 07:19:16;;;;;;;4.60;3.50;;;;;;;9.91;84.85;101613.09;4138526;28;20042;-63
2024/01/26 07:21:21;;;;;;;5.22;3.33;;;;;;;10.00;84.75;101603.84;4136207;28;20035;-64
2024/01/26 07:23:23;;;;;;;;;;;;;;;9.89;84.41;101600.91;4136351;28;20034;-63
2024/01/26 07:25:26;;;;;;;5.20;2.97;;;;;;;9.91;84.12;101599.22;4148922;28;19922;-63
2024/01/26 07:27:29;;;;;;;5.43;3.75;;;;;;;9.90;84.59;101602.63;4131457;28;20049;-63
2024/01/26 07:29:32;;;;;;;7.13;3.45;;;;;;;9.91;84.82;101597.50;4128605;28;20054;-63
2024/01/26 07:31:35;;;;;;;7.07;3.45;;;;;;;9.94;84.79;101595.03;4131771;28;20049;-63
2024/01/26 07:33:38;;;;;;;4.57;3.50;;;;;;;9.95;84.59;101598.50;4130908;28;20489;-63
2024/01/26 07:35:42;;;;;;;6.25;3.70;;;;;;;10.02;83.65;101597.91;4132067;28;20045;-63
2024/01/26 07:37:46;;;;;;;4.65;3.28;;;;;;;10.02;84.22;101592.69;4131922;28;20046;-63
2024/01/26 07:39:48;;;;;;;5.90;3.55;;;;;;;10.03;83.49;101589.28;4128646;28;20096;-63
2024/01/26 07:41:51;;;;;;;4.20;2.88;;;;;;;10.00;84.28;101585.69;4131781;28;20485;-63
2024/01/26 07:43:54;;;;;;;5.47;3.83;;;;;;;9.96;84.47;101588.16;4131912;28;20440;-63
2024/01/26 07:45:57;;;;;;;4.93;3.53;;;;;;;10.00;84.37;101586.53;4130028;28;20038;-63
2024/01/26 07:48:00;;;;;;;9.18;3.95;;;;;;;10.00;84.25;101586.53;4130107;28;20062;-63
2024/01/26 07:50:03;;;;;;;5.25;3.40;;;;;;;9.99;83.88;101582.19;4138850;28;20046;-63
2024/01/26 07:52:06;;;;;;;5.97;3.55;;;;;;;10.02;84.36;101574.50;4130092;28;20460;-63
2024/01/26 07:54:10;;;;;;;7.13;3.80;;;;;;;10.05;84.63;101576.34;4129807;28;20041;-63
2024/01/26 07:56:13;;;;;;;5.03;3.55;;;;;;;10.01;84.07;101559.75;4130815;28;20046;-63
2024/01/26 07:58:16;;;;;;;8.82;4.03;;;;;;;10.00;83.86;101557.97;4130160;28;20504;-63
2024/01/26 08:00:20;;;;;;;5.55;3.95;;;;;;;10.01;84.40;101546.75;4130759;28;20046;-63
2024/01/26 08:02:22;;;;;;;7.57;4.15;;;;;;;10.03;83.79;101545.13;4131369;28;20046;-63
2024/01/26 08:04:26;;;;;;;5.55;3.53;;;;;;;10.06;84.08;101544.31;4129885;28;20460;-63
2024/01/26 08:06:28;;;;;;;7.70;3.90;;;;;;;10.09;84.19;101534.91;4131376;28;20070;-63
2024/01/26 08:08:31;;;;;;;6.25;4.43;;;;;;;10.11;83.65;101530.66;4130444;28;20073;-63
2024/01/26 08:10:36;;;;;;;5.88;3.45;;;;;;;10.20;83.67;101529.19;4129902;28;20401;-63
2024/01/26 08:12:40;;;;;;;;;;;;;;;10.12;83.27;101523.75;4131610;28;20042;-63
2024/01/26 08:14:48;;;;;;;4.90;3.25;;;;;;;10.10;83.26;101536.69;4128977;28;19929;-63
2024/01/26 08:16:52;;;;;;;4.38;3.00;;;;;;;10.12;83.18;101550.59;4128587;28;20085;-63
2024/01/26 08:18:54;;;;;;;6.93;3.70;;;;;;;10.09;83.45;101555.72;4129733;28;20035;-63
2024/01/26 08:20:57;;;;;;;5.45;2.88;;;;;;;10.11;83.69;101564.41;4130103;28;20034;-63
2024/01/26 08:23:01;;;;;;;4.32;2.63;;;;;;;10.18;82.89;101567.22;4130099;28;22099;-63
2024/01/26 08:25:04;;;;;;;5.70;3.50;;;;;;;10.16;83.52;101563.69;4131316;28;20046;-63
2024/01/26 08:27:09;;;;;;;4.38;2.83;;;;;;;10.27;82.56;101558.03;4131301;28;20069;-63
2024/01/26 08:29:12;;;;;;;6.00;3.30;;;;;;;10.22;82.53;101545.72;4128282;28;20045;-62
2024/01/26 08:31:16;;;;;;;5.32;3.50;;;;;;;10.28;82.84;101530.34;4139459;28;20058;-62
2024/01/26 08:33:19;;;;;;;5.95;3.33;;;;;;;10.30;82.84;101520.88;4128595;28;20054;-62
2024/01/26 08:35:22;;;;;;;5.25;3.40;;;;;;;10.29;82.93;101521.69;4127736;28;20057;-62
2024/01/26 08:37:26;;;;;;;5.22;3.20;;;;;;;10.31;82.95;101538.25;4130217;28;20039;-62
2024/01/26 08:39:29;;;;;;;7.43;3.33;;;;;;;10.39;82.19;101539.38;4130921;28;20488;-62
2024/01/26 08:41:32;;;;;;;6.78;3.47;;;;;;;10.33;82.58;101543.47;4130838;28;20328;-63
2024/01/26 08:43:36;;;;;;;6.57;3.58;;;;;;;10.35;82.29;101541.84;4129960;28;20105;-63
2024/01/26 08:45:38;;;;;;;5.75;3.22;;;;;;;10.34;82.34;101538.38;4130919;28;20038;-62
2024/01/26 08:47:41;;;;;;;4.07;2.95;;;;;;;10.31;82.30;101538.25;4130735;28;20038;-62
2024/01/26 08:49:44;;;;;;;6.10;3.10;;;;;;;10.36;82.38;101530.63;4131611;28;20050;-63
2024/01/26 08:51:47;;;;;;;5.60;3.13;;;;;;;10.37;82.47;101524.59;4129882;28;20488;-63
2024/01/26 08:53:50;;;;;;;4.90;3.28;;;;;;;10.36;82.08;101522.81;4131505;28;20488;-64
2024/01/26 08:55:53;;;;;;;8.77;2.60;;;;;;;10.31;81.94;101515.72;4131610;28;20133;-63
2024/01/26 08:57:56;;;;;;;4.18;2.50;;;;;;;10.31;82.03;101509.66;4129613;28;20562;-62
2024/01/26 09:00:03;;;;;;;5.22;2.72;;;;;;;10.35;82.34;101511.50;4123016;28;20063;-62
2024/01/26 09:02:07;;;;;;;4.20;2.58;;;;;;;10.32;81.91;101511.38;4131165;28;20038;-63
2024/01/26 09:04:09;;;;;;;4.90;2.55;;;;;;;10.34;82.17;101508.88;4130437;28;20045;-64
2024/01/26 09:06:12;;;;;;;3.80;2.40;;;;;;;10.37;81.56;101509.88;4124195;28;20412;-62
2024/01/26 09:08:15;;;;;;;3.60;2.53;;;;;;;10.32;81.57;101506.19;4130224;28;20061;-62
2024/01/26 09:10:19;;;;;;;5.63;2.75;;;;;;;10.34;81.86;101503.66;4130135;28;20034;-62
2024/01/26 09:12:22;;;;;;;4.90;2.97;;;;;;;10.31;81.95;101494.06;4131236;28;20030;-62
2024/01/26 09:14:24;;;;;;;7.50;3.00;;;;;;;10.28;81.95;101493.97;4131400;28;20042;-63
2024/01/26 09:16:28;;;;;;;3.83;2.17;;;;;;;10.26;82.87;101495.59;4130058;28;20096;-63
2024/01/26 09:18:31;;;;;;;4.15;2.85;;;;;;;10.26;82.61;101496.47;4130154;28;20500;-63
2024/01/26 09:20:48;;;;;;;5.53;2.40;;;;;;;10.27;82.91;101489.59;4129431;28;20488;-63
2024/01/26 09:22:51;;;;;;;5.78;2.58;;;;;;;10.33;82.20;101487.16;4128176;28;20592;-63
2024/01/26 09:24:54;;;;;;;8.52;2.72;;;;;;;10.38;82.04;101487.34;4129076;28;20047;-63
2024/01/26 09:26:57;;;;;;;5.45;2.80;;;;;;;10.37;82.37;101483.00;4129144;28;20053;-63
2024/01/26 09:29:01;;;;;;;4.25;2.20;;;;;;;10.45;81.38;101476.31;4129426;28;20050;-63
2024/01/26 09:31:03;;;;;;;4.80;2.97;;;;;;;10.39;81.58;101481.31;4127854;28;20136;-63
2024/01/26 09:33:08;;;;;;;3.88;2.22;;;;;;;10.40;81.92;101468.38;4112244;28;20050;-63
2024/01/26 09:35:20;;;;;;;3.25;1.92;;;;;;;10.45;81.78;101461.59;4129373;28;20072;-63